Time;durP1;ratioP1;P1;durP2;ratioP2;P2;SDS_P1;SDS_P2;PMS_P1;PMS_P2;Temp;Humidity;BMP_temperature;BMP_pressure;BME280_temperature;BME280_humidity;BME280_pressure;Samples;Min_cycle;Max_cycle;Signal;HPM_P1;HPM_P2
2022/05/07 00:01:07;;;;;;;10.65;8.27;;;;;;;16.59;76.89;100620.41;5054875;28;20048;-73
2022/05/07 00:03:36;;;;;;;12.38;8.55;;;;;;;16.58;77.33;100618.69;5055215;28;20053;-73
2022/05/07 00:06:04;;;;;;;10.80;8.00;;;;;;;16.52;77.54;100611.13;5054885;28;20067;-73
2022/05/07 00:08:32;;;;;;;10.23;8.00;;;;;;;16.47;78.10;100618.69;5073160;28;20040;-73
2022/05/07 00:11:00;;;;;;;14.23;8.57;;;;;;;16.53;77.29;100612.84;5072587;28;20047;-73
2022/05/07 00:13:29;;;;;;;11.90;8.18;;;;;;;16.50;77.01;100607.69;5073200;28;20052;-73
2022/05/07 00:18:44;;;;;;;9.40;7.25;;;;;;;16.58;74.29;100607.94;5055131;28;20482;-77
2022/05/07 00:21:12;;;;;;;10.23;7.57;;;;;;;16.52;74.61;100605.75;5072668;28;20051;-72
2022/05/07 00:23:43;;;;;;;10.30;6.47;;;;;;;16.47;73.60;100607.94;5072960;28;20135;-72
2022/05/07 00:26:11;;;;;;;10.00;6.40;;;;;;;16.45;73.12;100603.66;5073105;28;20048;-72
2022/05/07 00:28:40;;;;;;;8.65;6.50;;;;;;;16.50;71.97;100607.69;5054940;28;20048;-72
2022/05/07 00:31:09;;;;;;;7.88;6.00;;;;;;;16.55;71.04;100604.63;5072385;28;20532;-72
2022/05/07 00:33:38;;;;;;;7.88;5.43;;;;;;;16.50;70.94;100602.31;5072514;28;20045;-74
2022/05/07 00:36:06;;;;;;;7.43;5.60;;;;;;;16.40;71.35;100604.00;5054631;28;20052;-73
2022/05/07 00:38:34;;;;;;;9.20;6.55;;;;;;;16.35;72.06;100603.50;5055126;28;20123;-73
2022/05/07 00:41:03;;;;;;;7.95;5.30;;;;;;;16.40;70.10;100603.13;5072466;28;20111;-73
2022/05/07 00:43:35;;;;;;;5.50;4.65;;;;;;;16.39;69.91;100602.28;5072725;28;20055;-75
2022/05/07 00:46:03;;;;;;;6.33;5.13;;;;;;;16.37;70.38;100603.38;5054617;28;20131;-75
2022/05/07 00:48:34;;;;;;;7.13;5.00;;;;;;;16.40;69.39;100595.91;5072946;28;20041;-75
2022/05/07 00:53:48;;;;;;;7.57;5.15;;;;;;;16.35;69.62;100598.13;5072475;28;20425;-75
2022/05/07 00:56:17;;;;;;;6.40;4.97;;;;;;;16.32;69.52;100598.38;5055560;28;20048;-75
2022/05/07 00:58:45;;;;;;;7.40;5.00;;;;;;;16.33;69.58;100600.09;5076271;28;20565;-75
2022/05/07 01:01:13;;;;;;;7.22;4.97;;;;;;;16.40;69.19;100595.91;5057978;28;20489;-75
2022/05/07 01:03:45;;;;;;;6.72;4.82;;;;;;;16.33;69.10;100593.84;5076133;28;20123;-75
2022/05/07 01:06:15;;;;;;;7.15;4.95;;;;;;;16.25;70.54;100605.22;5076326;28;20040;-75
2022/05/07 01:08:44;;;;;;;6.68;4.95;;;;;;;16.21;70.58;100606.41;5075994;28;20052;-75
2022/05/07 01:11:12;;;;;;;8.48;5.05;;;;;;;16.14;71.38;100610.59;5076358;28;20370;-75
2022/05/07 01:13:41;;;;;;;9.93;5.78;;;;;;;16.09;72.71;100610.06;5076098;28;20036;-75
2022/05/07 01:16:11;;;;;;;6.40;5.55;;;;;;;16.03;73.53;100612.28;5075822;28;20499;-75
2022/05/07 01:18:40;;;;;;;8.98;5.53;;;;;;;16.00;74.27;100604.41;5076032;28;20048;-75
2022/05/07 01:21:10;;;;;;;7.45;5.70;;;;;;;16.05;73.84;100598.69;5075698;28;20049;-75
2022/05/07 01:23:41;;;;;;;7.40;5.78;;;;;;;16.00;73.71;100599.03;5075895;28;20052;-75
2022/05/07 01:26:10;;;;;;;7.38;5.93;;;;;;;16.00;73.63;100608.94;5075686;28;20045;-75
2022/05/07 01:28:40;;;;;;;8.18;6.30;;;;;;;16.00;73.74;100604.41;5075771;28;20098;-73
2022/05/07 01:31:08;;;;;;;8.85;6.05;;;;;;;16.11;72.78;100589.28;5075485;28;20541;-73
2022/05/07 01:33:38;;;;;;;7.68;5.82;;;;;;;16.36;71.05;100589.06;5075883;28;20048;-81
2022/05/07 01:36:11;;;;;;;6.70;5.45;;;;;;;16.22;71.25;100600.09;5057523;28;20098;-78
2022/05/07 01:38:40;;;;;;;7.10;5.68;;;;;;;16.19;71.38;100605.69;5075855;28;20071;-78
2022/05/07 01:41:09;;;;;;;8.38;5.28;;;;;;;16.29;70.09;100599.47;5075512;28;20452;-77
2022/05/07 01:43:37;;;;;;;7.18;5.13;;;;;;;16.31;69.65;100599.38;5075565;28;20041;-76
2022/05/07 01:48:09;;;;;;;7.10;5.38;;;;;;;16.25;70.26;100597.13;5074970;28;20066;-77
2022/05/07 01:48:54;;;;;;;10.52;5.38;;;;;;;16.22;70.42;100597.38;5075404;28;20534;-76
2022/05/07 01:51:22;;;;;;;6.95;4.85;;;;;;;16.18;70.93;100606.66;5075480;28;20062;-76
2022/05/07 01:53:51;;;;;;;6.95;5.38;;;;;;;16.14;71.33;100600.69;5075122;28;20032;-82
2022/05/07 01:56:19;;;;;;;7.80;4.70;;;;;;;16.20;70.41;100597.47;5075252;28;20036;-74
2022/05/07 01:58:49;;;;;;;7.43;5.15;;;;;;;16.16;70.80;100597.84;5057585;28;20405;-73
2022/05/07 02:01:18;;;;;;;6.95;5.20;;;;;;;16.13;71.02;100598.09;5075034;28;20435;-73
2022/05/07 02:03:46;;;;;;;6.20;5.07;;;;;;;16.13;71.57;100592.72;5057050;28;20053;-72
2022/05/07 02:06:14;;;;;;;7.65;5.18;;;;;;;16.10;71.40;100592.94;5074835;28;20044;-76
2022/05/07 02:08:43;;;;;;;7.30;4.75;;;;;;;16.10;71.61;100590.25;5074049;28;20052;-74
2022/05/07 02:11:12;;;;;;;7.78;5.40;;;;;;;16.09;72.09;100593.91;5056788;28;20179;-76
2022/05/07 02:13:40;;;;;;;8.15;5.32;;;;;;;16.06;72.71;100596.88;5074982;28;20124;-74
2022/05/07 02:16:08;;;;;;;6.32;4.93;;;;;;;16.05;72.37;100593.31;5074593;28;20132;-74
2022/05/07 02:18:37;;;;;;;9.65;4.95;;;;;;;16.02;72.53;100594.41;5074768;28;20478;-74
2022/05/07 02:21:05;;;;;;;10.27;5.13;;;;;;;16.01;73.41;100586.44;5074515;28;20090;-74
2022/05/07 02:23:33;;;;;;;8.32;5.30;;;;;;;15.92;72.67;100588.03;5092158;28;20067;-73
2022/05/07 02:26:02;;;;;;;7.72;5.25;;;;;;;15.94;73.01;100594.16;5094669;28;20048;-77
2022/05/07 02:28:31;;;;;;;7.50;5.35;;;;;;;15.90;73.77;100592.66;5094908;28;20044;-76
2022/05/07 02:30:59;;;;;;;7.55;5.20;;;;;;;15.89;73.51;100590.94;5076418;28;20054;-73
2022/05/07 02:33:28;;;;;;;7.57;5.25;;;;;;;15.89;73.40;100596.31;5076496;28;20043;-73
2022/05/07 02:35:56;;;;;;;8.30;5.47;;;;;;;15.92;72.98;100590.72;5094422;28;20040;-72
2022/05/07 02:38:24;;;;;;;9.52;5.53;;;;;;;15.93;72.42;100592.44;5094326;28;20036;-72
2022/05/07 02:43:42;;;;;;;7.40;5.82;;;;;;;15.99;71.75;100591.94;5076705;28;20044;-71
2022/05/07 02:46:12;;;;;;;6.88;5.57;;;;;;;15.88;72.56;100591.91;5094287;28;20067;-72
2022/05/07 02:48:44;;;;;;;8.10;5.10;;;;;;;15.89;72.58;100595.47;5076169;28;20044;-71
2022/05/07 02:51:13;;;;;;;6.80;5.20;;;;;;;15.96;72.54;100597.56;5093943;28;20044;-72
2022/05/07 02:53:41;;;;;;;8.07;5.57;;;;;;;15.90;72.25;100592.66;5094415;28;20040;-72
2022/05/07 02:56:09;;;;;;;10.05;5.53;;;;;;;15.83;73.51;100595.94;5094056;28;20044;-72
2022/05/07 02:58:37;;;;;;;7.47;5.70;;;;;;;15.77;73.72;100589.19;5093921;28;20078;-72
2022/05/07 03:01:07;;;;;;;7.63;5.50;;;;;;;15.80;74.03;100594.34;5093944;28;20079;-72
2022/05/07 03:03:35;;;;;;;7.75;5.72;;;;;;;15.92;73.51;100596.09;5092816;28;20097;-73
2022/05/07 03:06:04;;;;;;;9.60;6.47;;;;;;;15.87;73.82;100592.03;5092610;28;20437;-73
2022/05/07 03:08:32;;;;;;;8.77;6.32;;;;;;;15.69;74.99;100595.16;5092939;28;20408;-73
2022/05/07 03:11:00;;;;;;;8.38;6.32;;;;;;;15.78;74.57;100595.44;5093712;28;20040;-73
2022/05/07 03:13:28;;;;;;;7.60;5.70;;;;;;;15.72;75.09;100602.13;5093994;28;20048;-73
2022/05/07 03:15:56;;;;;;;7.63;6.15;;;;;;;15.70;74.89;100594.19;5093777;28;20487;-73
2022/05/07 03:18:26;;;;;;;7.57;6.28;;;;;;;15.68;75.66;100595.28;5093885;28;20048;-74
2022/05/07 03:20:54;;;;;;;10.60;6.50;;;;;;;15.59;76.18;100593.25;5093437;28;20044;-74
2022/05/07 03:23:23;;;;;;;8.07;6.38;;;;;;;15.59;76.63;100595.94;5093827;28;20044;-74
2022/05/07 03:25:51;;;;;;;8.95;7.00;;;;;;;15.67;76.01;100598.94;5092562;28;20501;-74
2022/05/07 03:28:22;;;;;;;11.20;6.75;;;;;;;15.74;75.59;100598.38;5093923;28;20068;-74
2022/05/07 03:30:50;;;;;;;9.95;7.00;;;;;;;15.58;76.34;100594.22;5075564;28;20392;-74
2022/05/07 03:33:18;;;;;;;11.55;7.13;;;;;;;15.65;76.34;100600.91;5075269;28;20101;-74
2022/05/07 03:35:48;;;;;;;9.32;6.85;;;;;;;15.67;76.20;100601.63;5093678;28;20040;-73
2022/05/07 03:38:16;;;;;;;9.35;6.72;;;;;;;15.56;77.06;100596.19;5093701;28;20413;-74
2022/05/07 03:40:45;;;;;;;7.70;6.90;;;;;;;15.56;77.04;100604.25;5093582;28;20114;-73
2022/05/07 03:43:13;;;;;;;8.80;6.97;;;;;;;15.52;77.48;100602.75;5093232;28;20122;-73
2022/05/07 03:45:42;;;;;;;8.25;7.15;;;;;;;15.51;77.80;100611.78;5093504;28;20037;-74
2022/05/07 03:48:11;;;;;;;11.30;7.43;;;;;;;15.63;77.01;100603.72;5092941;28;20048;-74
2022/05/07 03:50:39;;;;;;;10.13;7.28;;;;;;;15.52;77.49;100595.53;5093029;28;20043;-74
2022/05/07 03:55:54;;;;;;;9.23;6.90;;;;;;;15.56;77.88;100610.47;5093502;28;20473;-75
2022/05/07 03:58:22;;;;;;;10.20;7.72;;;;;;;15.52;78.17;100608.97;5093163;28;20508;-74
2022/05/07 04:00:51;;;;;;;9.55;7.25;;;;;;;15.64;77.44;100607.25;5075264;28;20082;-73
2022/05/07 04:03:19;;;;;;;10.80;7.00;;;;;;;15.59;77.91;100614.75;5074966;28;20130;-74
2022/05/07 04:05:47;;;;;;;9.38;7.63;;;;;;;15.44;78.76;100616.75;5075093;28;20059;-73
2022/05/07 04:08:18;;;;;;;9.68;6.90;;;;;;;15.55;78.25;100613.28;5092691;28;20044;-75
2022/05/07 04:10:46;;;;;;;9.32;7.07;;;;;;;15.55;78.33;100613.28;5075272;28;20071;-73
2022/05/07 04:13:15;;;;;;;10.93;7.28;;;;;;;15.40;79.05;100613.44;5093042;28;20040;-73
2022/05/07 04:15:47;;;;;;;8.98;7.25;;;;;;;15.48;79.37;100622.78;5075269;28;20076;-74
2022/05/07 04:18:16;;;;;;;10.20;7.50;;;;;;;15.44;79.79;100623.00;5093007;28;20043;-76
2022/05/07 04:20:44;;;;;;;10.40;7.53;;;;;;;15.45;79.50;100615.81;5093277;28;20477;-76
2022/05/07 04:23:12;;;;;;;8.30;6.63;;;;;;;15.53;79.33;100621.44;5092607;28;20048;-77
2022/05/07 04:25:42;;;;;;;9.80;7.25;;;;;;;15.48;80.03;100626.31;5093397;28;20044;-77
2022/05/07 04:28:11;;;;;;;11.30;7.75;;;;;;;15.46;79.80;100623.75;5091725;28;20139;-77
2022/05/07 04:30:39;;;;;;;10.07;7.30;;;;;;;15.61;79.39;100624.44;5092018;28;20078;-77
2022/05/07 04:33:07;;;;;;;12.70;7.93;;;;;;;15.58;79.06;100627.34;5096403;28;20047;-79
2022/05/07 04:35:36;;;;;;;10.13;6.97;;;;;;;15.75;77.89;100626.13;5096202;28;20485;-79
2022/05/07 04:38:04;;;;;;;9.90;7.57;;;;;;;15.60;78.89;100627.22;5095544;28;20066;-79
2022/05/07 04:40:32;;;;;;;8.75;6.93;;;;;;;15.68;77.81;100630.22;5095651;28;20052;-79
2022/05/07 04:43:01;;;;;;;10.57;7.55;;;;;;;15.58;78.79;100624.66;5096856;28;20400;-79
2022/05/07 04:45:30;;;;;;;11.20;7.45;;;;;;;15.70;78.30;100630.97;5096646;28;20048;-79
2022/05/07 04:47:58;;;;;;;8.75;7.30;;;;;;;15.74;77.99;100630.63;5097052;28;20036;-75
2022/05/07 04:50:26;;;;;;;10.50;7.43;;;;;;;15.84;77.12;100635.31;5096602;28;20510;-74
2022/05/07 04:52:54;;;;;;;9.90;7.38;;;;;;;15.90;77.19;100630.31;5095465;28;20471;-74
2022/05/07 04:55:22;;;;;;;9.50;7.28;;;;;;;16.03;76.40;100625.72;5096314;28;20043;-73
2022/05/07 04:57:51;;;;;;;10.38;7.20;;;;;;;15.95;76.58;100635.34;5096557;28;20044;-74
2022/05/07 05:00:22;;;;;;;10.13;7.28;;;;;;;16.01;76.22;100638.41;5094867;28;20450;-73
2022/05/07 05:02:50;;;;;;;10.02;7.35;;;;;;;15.90;76.37;100635.69;5096575;28;20044;-74
2022/05/07 05:05:18;;;;;;;10.52;7.47;;;;;;;16.08;76.11;100638.81;5095023;28;20048;-74
2022/05/07 05:07:46;;;;;;;8.82;7.20;;;;;;;16.08;75.41;100632.56;5096254;28;20044;-74
2022/05/07 05:10:19;;;;;;;9.13;6.68;;;;;;;16.18;75.24;100634.44;5096166;28;20040;-73
2022/05/07 05:12:50;;;;;;;8.13;6.55;;;;;;;16.36;73.71;100628.59;5095172;28;20079;-73
2022/05/07 05:15:20;;;;;;;8.48;6.97;;;;;;;16.17;75.07;100634.56;5096081;28;20044;-72
2022/05/07 05:17:49;;;;;;;10.50;7.03;;;;;;;16.30;74.78;100632.63;5094975;28;20087;-73
2022/05/07 05:20:17;;;;;;;9.20;6.95;;;;;;;16.37;73.98;100639.25;5095591;28;20044;-74
2022/05/07 05:22:49;;;;;;;10.32;6.47;;;;;;;16.55;73.48;100634.25;5095805;28;20143;-74
2022/05/07 05:25:19;;;;;;;9.55;7.20;;;;;;;16.48;73.70;100647.31;5095950;28;20105;-73
2022/05/07 05:27:48;;;;;;;8.05;6.63;;;;;;;16.51;73.53;100641.72;5094825;28;20449;-72
2022/05/07 05:30:16;;;;;;;8.75;7.05;;;;;;;16.60;73.21;100641.00;5095611;28;20050;-72
2022/05/07 05:32:46;;;;;;;9.25;6.85;;;;;;;16.77;72.66;100642.38;5095884;28;20526;-72
2022/05/07 05:35:14;;;;;;;8.18;6.80;;;;;;;16.77;72.14;100646.91;5094241;28;20052;-71
2022/05/07 05:37:42;;;;;;;8.40;6.85;;;;;;;16.85;72.31;100650.69;5095786;28;20051;-71
2022/05/07 05:40:10;;;;;;;9.13;6.60;;;;;;;17.02;71.64;100646.66;5095346;28;20046;-71
2022/05/07 05:42:39;;;;;;;9.80;6.75;;;;;;;17.20;70.38;100648.84;5094338;28;20409;-71
2022/05/07 05:45:09;;;;;;;9.48;7.15;;;;;;;17.25;70.24;100646.59;5093806;28;20071;-76
2022/05/07 05:47:38;;;;;;;11.05;6.80;;;;;;;17.34;69.72;100649.41;5095570;28;20048;-71
2022/05/07 05:50:09;;;;;;;8.93;7.00;;;;;;;17.39;69.68;100644.50;5093707;28;20052;-71
2022/05/07 05:52:37;;;;;;;9.30;7.20;;;;;;;17.37;69.36;100651.00;5095604;28;20131;-71
2022/05/07 05:55:07;;;;;;;7.40;5.75;;;;;;;17.29;68.97;100645.41;5093872;28;20109;-71
2022/05/07 05:57:36;;;;;;;8.73;6.60;;;;;;;17.26;69.81;100648.31;5093965;28;20499;-72
2022/05/07 06:00:07;;;;;;;7.63;6.38;;;;;;;17.46;69.04;100647.53;5094793;28;20055;-71
2022/05/07 06:02:35;;;;;;;7.95;6.25;;;;;;;17.50;68.53;100646.31;5095281;28;20040;-72
2022/05/07 06:05:05;;;;;;;10.90;6.80;;;;;;;17.39;69.20;100643.66;5095030;28;20373;-73
2022/05/07 06:07:35;;;;;;;9.50;6.25;;;;;;;17.63;68.69;100652.38;5095244;28;20404;-72
2022/05/07 06:10:04;;;;;;;9.18;6.65;;;;;;;17.50;69.38;100651.72;5095024;28;20131;-73
2022/05/07 06:12:35;;;;;;;8.15;6.40;;;;;;;17.67;69.23;100653.88;5095317;28;20101;-74
2022/05/07 06:15:05;;;;;;;9.80;7.53;;;;;;;17.81;68.48;100658.13;5093767;28;20048;-73
2022/05/07 06:17:34;;;;;;;9.02;6.45;;;;;;;17.86;68.63;100658.63;5076915;28;20524;-74
2022/05/07 06:20:02;;;;;;;8.32;6.75;;;;;;;17.89;68.60;100665.59;5076480;28;20544;-73
2022/05/07 06:22:31;;;;;;;8.90;6.60;;;;;;;17.99;68.04;100666.53;5094149;28;20044;-72
2022/05/07 06:27:46;;;;;;;9.20;6.68;;;;;;;18.09;67.54;100664.75;5053164;28;20055;-74
2022/05/07 06:30:15;;;;;;;11.88;7.32;;;;;;;18.23;67.15;100660.84;5054298;28;20129;-74
2022/05/07 06:32:43;;;;;;;8.00;7.03;;;;;;;18.19;66.81;100659.41;5054151;28;20494;-72
2022/05/07 06:35:13;;;;;;;9.38;6.80;;;;;;;18.26;66.64;100660.63;5056490;28;20049;-73
2022/05/07 06:37:46;;;;;;;9.38;7.20;;;;;;;18.59;65.58;100662.22;5057339;28;20443;-70
2022/05/07 06:40:15;;;;;;;9.00;6.55;;;;;;;18.59;65.24;100665.78;5054165;28;20041;-72
2022/05/07 06:42:45;;;;;;;9.93;6.90;;;;;;;18.39;65.40;100661.25;5052990;28;20107;-71
2022/05/07 06:45:13;;;;;;;8.32;6.65;;;;;;;18.47;65.43;100663.31;5052668;28;20041;-72
2022/05/07 06:47:41;;;;;;;8.80;6.28;;;;;;;18.26;65.83;100661.47;5053919;28;20045;-73
2022/05/07 06:50:10;;;;;;;7.93;6.68;;;;;;;18.53;65.24;100668.19;5052872;28;20391;-71
2022/05/07 06:52:45;;;;;;;8.32;6.80;;;;;;;18.44;65.61;100668.97;5052797;28;20136;-70
2022/05/07 06:55:16;;;;;;;10.15;6.97;;;;;;;18.52;65.26;100661.91;5052168;28;20079;-70
2022/05/07 06:57:45;;;;;;;9.68;6.85;;;;;;;18.57;65.58;100665.06;5052913;28;20445;-71
2022/05/07 07:00:33;;;;;;;11.98;7.18;;;;;;;18.63;65.15;100660.13;5052237;28;20072;-71
2022/05/07 07:03:01;;;;;;;8.40;7.10;;;;;;;18.57;66.22;100666.91;5053912;28;20079;-75
2022/05/07 07:05:29;;;;;;;8.77;7.10;;;;;;;18.65;65.68;100656.34;5052306;28;20127;-74
2022/05/07 07:07:57;;;;;;;10.77;8.05;;;;;;;18.59;66.56;100662.22;5053832;28;20098;-72
2022/05/07 07:10:27;;;;;;;9.52;7.43;;;;;;;18.77;65.54;100663.34;5053435;28;20052;-69
2022/05/07 07:12:55;;;;;;;9.77;7.07;;;;;;;18.76;65.67;100658.94;5053689;28;20140;-69
2022/05/07 07:15:24;;;;;;;9.43;7.35;;;;;;;18.71;65.52;100661.19;5053301;28;20041;-68
2022/05/07 07:17:52;;;;;;;10.73;8.13;;;;;;;18.92;65.31;100660.31;5053530;28;20041;-67
2022/05/07 07:20:20;;;;;;;12.38;7.85;;;;;;;18.99;65.07;100658.75;5051736;28;20053;-69
2022/05/07 07:22:48;;;;;;;11.05;7.85;;;;;;;18.98;65.31;100662.44;5051931;28;20044;-68
2022/05/07 07:25:17;;;;;;;9.57;7.35;;;;;;;18.97;64.30;100660.75;5093007;28;20052;-70
2022/05/07 07:27:46;;;;;;;9.35;7.32;;;;;;;19.00;64.80;100664.00;5093388;28;20487;-70
2022/05/07 07:30:15;;;;;;;10.40;7.70;;;;;;;19.11;63.83;100668.50;5093245;28;20540;-73
2022/05/07 07:32:45;;;;;;;10.40;7.50;;;;;;;19.29;63.61;100669.53;5075304;28;20200;-71
2022/05/07 07:35:13;;;;;;;10.82;7.38;;;;;;;19.19;63.22;100667.78;5093530;28;20090;-71
2022/05/07 07:37:45;;;;;;;8.82;6.60;;;;;;;19.17;63.19;100673.34;5075348;28;20048;-71
2022/05/07 07:40:14;;;;;;;9.98;6.90;;;;;;;18.90;64.98;100675.78;5075528;28;20081;-71
2022/05/07 07:42:42;;;;;;;10.27;7.40;;;;;;;19.17;63.21;100671.47;5075285;28;20553;-70
2022/05/07 07:48:03;;;;;;;8.75;6.88;;;;;;;19.40;62.38;100669.44;5075217;28;20382;-70
2022/05/07 07:50:34;;;;;;;9.88;7.45;;;;;;;19.56;61.54;100670.75;5093228;28;20046;-70
2022/05/07 07:53:04;;;;;;;9.77;7.15;;;;;;;19.36;62.20;100673.38;5075332;28;20404;-70
2022/05/07 07:55:34;;;;;;;8.05;6.55;;;;;;;19.67;61.71;100660.66;5075080;28;20056;-71
2022/05/07 07:58:04;;;;;;;9.98;7.30;;;;;;;20.23;61.15;100664.50;5075432;28;20048;-69
2022/05/07 08:00:35;;;;;;;9.07;6.97;;;;;;;20.33;59.82;100659.06;5074871;28;20105;-69
2022/05/07 08:03:05;;;;;;;10.68;7.10;;;;;;;20.39;58.87;100656.66;5075088;28;20076;-69
2022/05/07 08:05:36;;;;;;;10.18;6.78;;;;;;;20.62;58.49;100661.75;5074728;28;20048;-69
2022/05/07 08:13:39;;;;;;;10.00;7.28;;;;;;;19.78;61.42;100665.06;5078845;28;20138;-69
2022/05/07 08:16:09;;;;;;;10.82;6.82;;;;;;;19.72;60.52;100665.66;5096974;28;20075;-69
2022/05/07 08:18:39;;;;;;;9.63;7.18;;;;;;;19.69;60.90;100657.84;5078808;28;20071;-68
2022/05/07 08:21:08;;;;;;;9.77;6.55;;;;;;;19.88;60.83;100662.38;5097108;28;20051;-69
2022/05/07 08:23:37;;;;;;;12.10;6.93;;;;;;;19.96;61.33;100660.66;5096709;28;20060;-68
2022/05/07 08:26:06;;;;;;;10.85;6.53;;;;;;;20.46;59.28;100663.25;5078903;28;20080;-69
2022/05/07 08:28:35;;;;;;;9.68;7.30;;;;;;;20.43;59.01;100668.06;5096687;28;20502;-69
2022/05/07 08:31:05;;;;;;;8.77;6.75;;;;;;;20.60;58.11;100664.63;5078635;28;20052;-68
2022/05/07 08:33:36;;;;;;;9.70;6.90;;;;;;;20.81;56.81;100665.25;5078326;28;20055;-73
2022/05/07 08:36:04;;;;;;;10.88;7.20;;;;;;;20.91;56.91;100661.66;5078521;28;20055;-69
2022/05/07 08:38:32;;;;;;;9.55;7.18;;;;;;;20.80;57.22;100666.25;5077968;28;20082;-70
2022/05/07 08:41:01;;;;;;;8.07;6.60;;;;;;;20.63;57.26;100668.88;5078418;28;20134;-72
2022/05/07 08:43:32;;;;;;;10.80;7.22;;;;;;;20.69;58.14;100673.72;5078139;28;20106;-78
2022/05/07 08:46:03;;;;;;;12.95;6.68;;;;;;;21.01;58.05;100668.75;5096219;28;20040;-74
2022/05/07 08:48:31;;;;;;;11.48;6.88;;;;;;;20.86;58.29;100671.09;5077454;28;20052;-72
2022/05/07 08:51:01;;;;;;;9.52;7.25;;;;;;;21.03;57.03;100677.56;5096171;28;20123;-72
2022/05/07 08:53:30;;;;;;;10.57;6.55;;;;;;;21.04;57.14;100676.59;5077490;28;20549;-75
2022/05/07 08:55:58;;;;;;;7.85;6.47;;;;;;;20.55;57.17;100678.59;5095935;28;20151;-74
2022/05/07 08:58:26;;;;;;;9.90;7.35;;;;;;;20.55;57.53;100673.16;5077521;28;20462;-77
2022/05/07 09:00:55;;;;;;;9.13;6.93;;;;;;;21.00;56.87;100669.75;5078026;28;20052;-75
2022/05/07 09:03:24;;;;;;;9.98;6.82;;;;;;;21.06;56.24;100668.31;5077575;28;20048;-72
2022/05/07 09:05:52;;;;;;;11.48;6.93;;;;;;;21.22;56.71;100664.94;5077495;28;20055;-70
2022/05/07 09:08:27;;;;;;;9.20;6.43;;;;;;;21.53;55.13;100665.53;5095946;28;20085;-75
2022/05/07 09:10:55;;;;;;;9.95;6.75;;;;;;;21.64;53.97;100671.56;5077786;28;20052;-79
2022/05/07 09:13:23;;;;;;;9.85;6.40;;;;;;;21.85;53.31;100670.41;5077676;28;20151;-73
2022/05/07 09:15:53;;;;;;;8.02;6.60;;;;;;;21.92;52.58;100668.81;5077730;28;20459;-73
2022/05/07 09:18:22;;;;;;;9.18;7.00;;;;;;;22.17;52.24;100662.59;5077360;28;20052;-73
2022/05/07 09:23:47;;;;;;;9.43;6.68;;;;;;;22.27;50.74;100668.78;5076871;28;20485;-69
2022/05/07 09:26:29;;;;;;;8.23;5.90;;;;;;;22.53;48.74;100667.97;5094911;28;20046;-69
2022/05/07 09:28:59;;;;;;;7.57;5.60;;;;;;;22.34;49.36;100663.56;5094139;28;20131;-71
2022/05/07 09:31:30;;;;;;;7.28;5.88;;;;;;;22.59;49.36;100663.78;5094089;28;20459;-69
2022/05/07 09:35:47;;;;;;;8.13;5.03;;;;;;;22.83;46.93;100669.34;5094711;28;20417;-69
2022/05/07 09:36:47;;;;;;;7.50;4.90;;;;;;;22.36;46.75;100655.25;5094216;28;20515;-69
2022/05/07 09:39:16;;;;;;;9.73;4.97;;;;;;;22.60;45.22;100663.59;5094395;28;20127;-69
2022/05/07 09:41:45;;;;;;;6.63;4.10;;;;;;;22.53;43.43;100657.09;5093855;28;20048;-69
2022/05/07 09:44:14;;;;;;;9.63;4.95;;;;;;;22.26;46.04;100649.94;5094306;28;20143;-69
2022/05/07 09:46:42;;;;;;;6.38;4.85;;;;;;;22.56;47.10;100649.47;5093918;28;20059;-69
2022/05/07 09:49:11;;;;;;;7.90;4.93;;;;;;;22.74;46.08;100654.84;5094166;28;20075;-69
2022/05/07 09:51:41;;;;;;;7.20;5.45;;;;;;;22.83;46.50;100648.44;5093719;28;20070;-69
2022/05/07 09:59:45;;;;;;;8.88;5.30;;;;;;;22.41;46.66;100642.91;5095110;28;20123;-69
2022/05/07 10:02:25;;;;;;;7.75;4.80;;;;;;;22.63;45.24;100641.53;5093943;28;20051;-69
2022/05/07 10:05:25;;;;;;;8.38;5.82;;;;;;;22.58;46.10;100641.13;5093983;28;20050;-68
2022/05/07 10:08:13;;;;;;;8.43;5.40;;;;;;;21.94;47.46;100634.19;5094925;28;20453;-70
2022/05/07 10:10:42;;;;;;;7.13;5.30;;;;;;;21.95;48.16;100633.19;5093412;28;20408;-68
2022/05/07 10:13:17;;;;;;;8.13;5.00;;;;;;;21.88;47.08;100632.94;5093885;28;20115;-68
2022/05/07 10:15:45;;;;;;;9.32;4.93;;;;;;;21.81;47.58;100631.88;5094274;28;20044;-68
2022/05/07 10:18:17;;;;;;;7.60;4.47;;;;;;;21.77;45.30;100638.59;5093151;28;20073;-68
2022/05/07 10:20:47;;;;;;;6.50;4.45;;;;;;;21.50;46.38;100639.50;5094558;28;20036;-69
2022/05/07 10:23:28;;;;;;;7.05;4.88;;;;;;;21.49;48.25;100635.09;5093417;28;20056;-69
2022/05/07 10:25:58;;;;;;;8.57;5.07;;;;;;;21.62;49.36;100624.75;5094884;28;20042;-69
2022/05/07 10:28:40;;;;;;;7.78;5.38;;;;;;;21.92;50.97;100620.78;5092562;28;20056;-69
2022/05/07 10:31:18;;;;;;;9.90;6.55;;;;;;;21.42;54.27;100623.13;5094553;28;20048;-69
2022/05/07 10:33:46;;;;;;;9.48;6.53;;;;;;;21.07;55.93;100624.75;5092579;28;20087;-69
2022/05/07 10:36:15;;;;;;;11.15;6.82;;;;;;;21.50;55.62;100630.53;5092017;28;20488;-69
2022/05/07 10:38:46;;;;;;;9.68;6.68;;;;;;;21.91;54.11;100629.94;5093059;28;20032;-71
2022/05/07 10:41:24;;;;;;;9.38;6.00;;;;;;;21.79;51.73;100624.88;5094326;28;20050;-70
2022/05/07 10:44:06;;;;;;;8.00;5.95;;;;;;;22.17;50.25;100624.56;5093462;28;20502;-72
2022/05/07 10:46:40;;;;;;;7.97;5.13;;;;;;;21.96;48.54;100615.88;5075590;28;20051;-72
2022/05/07 10:49:09;;;;;;;7.03;4.70;;;;;;;21.85;47.21;100619.69;5092822;28;20123;-71
2022/05/07 10:51:39;;;;;;;6.78;3.97;;;;;;;22.22;44.69;100619.50;5075188;28;20052;-72
2022/05/07 10:54:19;;;;;;;8.63;4.20;;;;;;;21.81;44.15;100617.41;5093353;28;20044;-72
2022/05/07 10:56:49;;;;;;;6.88;3.65;;;;;;;22.41;42.52;100617.59;5093553;28;20477;-72
2022/05/07 10:59:20;;;;;;;6.95;3.75;;;;;;;22.35;43.24;100610.09;5093787;28;20040;-72
2022/05/07 11:01:49;;;;;;;7.35;4.20;;;;;;;22.21;42.77;100615.09;5075216;28;20090;-72
2022/05/07 11:04:19;;;;;;;6.20;4.30;;;;;;;22.48;42.54;100611.34;5075322;28;20473;-72
2022/05/07 11:06:49;;;;;;;7.10;4.88;;;;;;;22.88;42.61;100606.34;5093376;28;20064;-72
2022/05/07 11:09:19;;;;;;;8.35;4.97;;;;;;;22.71;42.96;100605.38;5075595;28;20052;-72
2022/05/07 11:11:49;;;;;;;7.53;5.47;;;;;;;22.51;45.05;100599.31;5075221;28;20044;-71
2022/05/07 11:14:23;;;;;;;9.43;5.22;;;;;;;22.58;45.83;100597.63;5075582;28;20072;-73
2022/05/07 11:16:52;;;;;;;9.65;5.15;;;;;;;22.62;45.31;100593.59;5093565;28;20052;-73
2022/05/07 11:19:28;;;;;;;8.05;5.20;;;;;;;22.74;45.60;100597.72;5075596;28;20446;-73
2022/05/07 11:21:57;;;;;;;9.35;6.05;;;;;;;22.80;46.59;100594.38;5075145;28;20048;-73
2022/05/07 11:24:32;;;;;;;9.23;5.00;;;;;;;22.93;45.42;100584.94;5093726;28;20056;-73
2022/05/07 11:27:03;;;;;;;8.43;6.05;;;;;;;23.10;47.18;100583.97;5093779;28;20114;-73
2022/05/07 11:29:34;;;;;;;9.75;6.07;;;;;;;22.64;47.89;100574.41;5075322;28;20508;-73
2022/05/07 11:32:09;;;;;;;9.20;6.55;;;;;;;22.60;48.80;100582.03;5075620;28;20063;-72
2022/05/07 11:34:39;;;;;;;9.52;6.20;;;;;;;22.74;48.25;100584.13;5075524;28;20043;-73
2022/05/07 11:37:12;;;;;;;9.43;6.00;;;;;;;22.76;49.22;100576.66;5075491;28;20493;-72
2022/05/07 11:39:53;;;;;;;10.85;6.20;;;;;;;22.70;48.72;100573.78;5075602;28;20113;-74
2022/05/07 11:42:33;;;;;;;6.97;5.40;;;;;;;23.05;47.87;100570.00;5094108;28;20105;-74
2022/05/07 11:45:25;;;;;;;8.35;6.13;;;;;;;23.08;47.47;100570.56;5093056;28;20447;-74
2022/05/07 11:47:58;;;;;;;7.60;6.13;;;;;;;22.78;48.05;100569.22;5088008;28;20052;-72
2022/05/07 11:50:29;;;;;;;10.25;6.00;;;;;;;22.94;47.66;100564.88;5093533;28;20040;-71
2022/05/07 11:53:10;;;;;;;8.55;6.25;;;;;;;22.68;48.81;100565.78;5075205;28;20048;-71
2022/05/07 11:55:38;;;;;;;9.15;6.15;;;;;;;22.62;48.70;100565.56;5068479;28;20062;-73
2022/05/07 11:58:14;;;;;;;7.75;5.57;;;;;;;23.00;47.52;100565.06;5092882;28;20444;-72
2022/05/07 12:00:45;;;;;;;8.25;5.38;;;;;;;22.90;47.60;100556.19;5092961;28;20052;-73
2022/05/07 12:03:18;;;;;;;8.70;5.68;;;;;;;22.43;47.52;100553.91;5093019;28;20473;-73
2022/05/07 12:05:47;;;;;;;;;;;;;;;22.67;46.65;100560.47;5074508;28;20485;-72
2022/05/07 12:08:17;;;;;;;7.80;4.95;;;;;;;22.64;46.80;100550.78;5074390;28;20411;-73